Main page
METAR-TAF:

METAR-TAF

Airports :

RAF Scampton

Scampton, England

latitude: 53-18-27N, longitude: 000-33-03W, elevation: 62 m

Current weather observation

The report was made 58 minutes ago, at 16:50 UTC
Wind 6 kt from the South
Temperature 11°C
Humidity 87%
Pressure 1019 hPa
Visibility 10 km or more

METAR: EGXP 151650Z AUTO 17006KT 9999 // NCD 11/09 Q1019

Time: 17:48 (17:48 UTC)

Forecast

The report was made 3 hours and 58 minutes ago, at 13:50 UTC
Forecast valid from 15 at 15 UTC to 15 at 18 UTC
Wind 10 kt from the South
Visibility 10 km or more
Few clouds at a height of 1500 ft
Probability 30% :
Temporary
from 15 at 15 UTC to 15 at 18 UTC
Scattered clouds at a height of 1500 ft

TAF: EGXP 151350Z 1515/1518 19010KT 9999 FEW015 PROB30 TEMPO 1515/1518 SCT015

Weather observations and forecasts of more than 4000 airports (METAR and TAF reports).

The available stations are represented by yellow and red dots on the map.

Hover mouse over dot to see the name of the station.

Then click to see weather observations and forecasts.

To change the map : click on the green buttons with a black cross to zoom in, on the green button with a dash to zoom out, or on the green arrows for adjacent maps.


METAR-TAF: